createdAt,value
2023-04-19T00:03:03.092Z,7.28
2023-04-19T00:06:08.276Z,7.34
2023-04-19T00:09:12.278Z,7.31
2023-04-19T00:12:14.956Z,7.21
2023-04-19T00:15:17.603Z,7.20
2023-04-19T00:18:20.254Z,7.24
2023-04-19T00:21:22.924Z,7.12
2023-04-19T00:24:26.979Z,7.00
2023-04-19T00:27:29.615Z,6.90
2023-04-19T00:30:32.274Z,6.83
2023-04-19T00:33:35.082Z,6.87
2023-04-19T00:36:37.804Z,6.88
2023-04-19T00:39:42.000Z,6.94
2023-04-19T00:42:44.604Z,6.63
2023-04-19T00:45:49.068Z,6.76
2023-04-19T00:48:51.968Z,6.65
2023-04-19T00:51:54.983Z,6.79
2023-04-19T00:54:59.465Z,6.85
2023-04-19T00:58:02.219Z,6.97
2023-04-19T01:01:06.265Z,6.95
2023-04-19T01:04:09.684Z,6.90
2023-04-19T01:07:12.476Z,6.91
2023-04-19T01:10:16.503Z,6.94
2023-04-19T01:13:19.211Z,6.97
2023-04-19T01:16:21.876Z,6.90
2023-04-19T01:19:24.577Z,6.97
2023-04-19T01:22:30.025Z,6.77
2023-04-19T01:25:32.737Z,6.91
2023-04-19T01:28:35.418Z,6.84
2023-04-19T01:31:38.121Z,6.86
2023-04-19T01:34:41.937Z,6.86
2023-04-19T01:37:46.082Z,6.97
2023-04-19T01:40:48.767Z,6.95
2023-04-19T01:43:51.387Z,6.81
2023-04-19T01:46:54.996Z,6.73
2023-04-19T01:49:57.714Z,6.66
2023-04-19T01:53:01.752Z,6.62
2023-04-19T01:56:04.496Z,6.54
2023-04-19T01:59:07.162Z,6.51
2023-04-19T02:02:10.213Z,6.53
2023-04-19T02:05:13.099Z,6.30
2023-04-19T02:08:17.080Z,6.44
2023-04-19T02:11:19.842Z,6.38
2023-04-19T02:14:22.516Z,6.28
2023-04-19T02:17:25.804Z,6.34
2023-04-19T02:20:28.560Z,6.32
2023-04-19T02:23:32.579Z,6.30
2023-04-19T02:26:35.221Z,6.37
2023-04-19T02:29:38.828Z,6.30
2023-04-19T02:32:41.476Z,6.31
2023-04-19T02:35:44.120Z,6.20
2023-04-19T02:38:48.120Z,6.09
2023-04-19T02:41:51.010Z,6.20
2023-04-19T02:44:53.668Z,6.17
2023-04-19T02:47:56.532Z,6.10
2023-04-19T02:50:59.265Z,6.08
2023-04-19T02:54:03.260Z,6.05
2023-04-19T02:57:06.027Z,5.99
2023-04-19T03:00:10.360Z,5.98
2023-04-19T03:03:13.201Z,6.01
2023-04-19T03:06:16.830Z,5.95
2023-04-19T03:09:20.818Z,5.86
2023-04-19T03:12:23.485Z,5.94
2023-04-19T03:15:26.295Z,5.83
2023-04-19T03:18:29.695Z,5.80
2023-04-19T03:21:32.345Z,5.86
2023-04-19T03:24:38.030Z,5.80
2023-04-19T03:27:41.124Z,5.90
2023-04-19T03:30:43.784Z,5.92
2023-04-19T03:33:46.405Z,5.82
2023-04-19T03:36:49.130Z,5.73
2023-04-19T03:39:53.184Z,5.73
2023-04-19T03:42:55.842Z,5.77
2023-04-19T03:45:58.504Z,5.68
2023-04-19T03:49:01.188Z,5.70
2023-04-19T03:52:03.845Z,5.76
2023-04-19T03:55:09.219Z,5.69
2023-04-19T03:58:11.947Z,5.65
2023-04-19T04:01:19.532Z,5.78
2023-04-19T04:04:22.689Z,5.67
2023-04-19T04:07:25.827Z,5.85
2023-04-19T04:10:29.840Z,5.75
2023-04-19T04:13:32.529Z,5.70
2023-04-19T04:16:35.183Z,5.80
2023-04-19T04:19:37.808Z,5.73
2023-04-19T04:22:42.816Z,5.71
2023-04-19T04:25:47.476Z,5.73
2023-04-19T04:28:50.701Z,5.74
2023-04-19T04:31:53.422Z,5.76
2023-04-19T04:34:56.126Z,5.89
2023-04-19T04:37:59.563Z,5.85
2023-04-19T04:41:03.625Z,5.96
2023-04-19T04:44:12.535Z,5.99
2023-04-19T04:47:26.158Z,6.01
2023-04-19T04:50:28.900Z,5.97
2023-04-19T04:53:31.528Z,6.17
2023-04-19T04:56:35.875Z,6.16
2023-04-19T04:59:38.638Z,6.21
2023-04-19T05:02:41.448Z,6.23
2023-04-19T05:05:45.181Z,6.26
2023-04-19T05:08:48.041Z,6.38
2023-04-19T05:11:52.103Z,6.43
2023-04-19T05:14:54.810Z,6.54
2023-04-19T05:17:57.462Z,6.64
2023-04-19T05:21:00.346Z,6.63
2023-04-19T05:24:03.067Z,6.82
2023-04-19T05:27:07.075Z,6.89
2023-04-19T05:30:10.082Z,7.00
2023-04-19T05:33:12.717Z,6.98
2023-04-19T05:36:15.385Z,7.16
2023-04-19T05:39:18.041Z,7.27
2023-04-19T05:42:22.053Z,7.31
2023-04-19T05:45:25.322Z,7.39
2023-04-19T05:48:27.937Z,7.32
2023-04-19T05:51:31.791Z,7.64
2023-04-19T05:54:35.943Z,7.80
2023-04-19T05:57:40.069Z,7.87
2023-04-19T06:00:42.765Z,7.86
2023-04-19T06:03:45.816Z,7.83
2023-04-19T06:06:48.581Z,7.99
2023-04-19T06:09:51.241Z,8.27
2023-04-19T06:12:55.249Z,8.19
2023-04-19T06:15:58.743Z,8.35
2023-04-19T06:19:02.218Z,8.24
2023-04-19T06:22:04.901Z,8.34
2023-04-19T06:25:08.057Z,8.65
2023-04-19T06:28:12.057Z,8.66
2023-04-19T06:31:14.752Z,8.76
2023-04-19T06:34:17.483Z,8.92
2023-04-19T06:37:20.302Z,8.99
2023-04-19T06:40:23.036Z,9.15
2023-04-19T06:43:27.091Z,9.25
2023-04-19T06:46:29.761Z,9.37
2023-04-19T06:49:32.719Z,9.50
2023-04-19T06:52:35.389Z,9.64
2023-04-19T06:55:38.016Z,9.93
2023-04-19T06:58:42.040Z,9.95
2023-04-19T07:01:44.965Z,9.92
2023-04-19T07:04:48.287Z,10.01
2023-04-19T07:07:51.545Z,10.31
2023-04-19T07:10:54.212Z,10.25
2023-04-19T07:13:59.590Z,10.34
2023-04-19T07:17:02.267Z,10.59
2023-04-19T07:20:06.468Z,10.57
2023-04-19T07:23:09.047Z,10.77
2023-04-19T07:26:11.800Z,10.83
2023-04-19T07:29:15.988Z,11.12
2023-04-19T07:32:18.817Z,11.20
2023-04-19T07:35:21.975Z,11.28
2023-04-19T07:38:24.809Z,11.23
2023-04-19T07:41:27.496Z,11.34
2023-04-19T07:44:31.586Z,11.63
2023-04-19T07:47:34.326Z,11.81
2023-04-19T07:50:37.817Z,12.06
2023-04-19T07:53:41.778Z,12.10
2023-04-19T07:56:44.375Z,12.16
2023-04-19T07:59:48.384Z,12.31
2023-04-19T08:02:51.266Z,12.35
2023-04-19T08:05:54.500Z,12.69
2023-04-19T08:08:57.299Z,12.70
2023-04-19T08:11:59.912Z,12.65
2023-04-19T08:15:19.719Z,12.70
2023-04-19T08:18:26.935Z,12.83
2023-04-19T08:21:38.384Z,12.79
2023-04-19T08:24:43.765Z,12.75
2023-04-19T08:27:46.436Z,13.04
2023-04-19T08:30:50.480Z,13.21
2023-04-19T08:33:53.229Z,13.31
2023-04-19T08:37:03.579Z,13.49
2023-04-19T08:40:08.502Z,13.49
2023-04-19T08:43:11.096Z,13.47
2023-04-19T08:46:15.824Z,13.60
2023-04-19T08:49:21.037Z,13.82
2023-04-19T08:52:25.145Z,13.73
2023-04-19T08:55:29.400Z,13.97
2023-04-19T08:58:50.296Z,13.93
2023-04-19T09:01:59.133Z,14.23
2023-04-19T09:05:02.044Z,14.31
2023-04-19T09:08:23.596Z,14.16
2023-04-19T09:11:37.500Z,14.72
2023-04-19T09:14:57.797Z,14.74
2023-04-19T09:18:07.902Z,14.77
2023-04-19T09:21:10.797Z,15.07
2023-04-19T09:24:13.448Z,15.32
2023-04-19T09:27:20.720Z,15.16
2023-04-19T09:30:32.487Z,15.44
2023-04-19T09:33:39.674Z,15.10
2023-04-19T09:36:42.873Z,15.54
2023-04-19T09:39:45.620Z,15.56
2023-04-19T09:45:53.965Z,15.78
2023-04-19T09:49:25.274Z,16.04
2023-04-19T09:52:33.723Z,16.40
2023-04-19T09:55:52.423Z,16.77
2023-04-19T09:59:08.773Z,17.33
2023-04-19T10:02:25.493Z,17.52
2023-04-19T10:05:30.286Z,17.59
2023-04-19T10:08:33.732Z,17.58
2023-04-19T10:11:39.424Z,17.22
2023-04-19T10:14:43.585Z,17.37
2023-04-19T10:17:46.661Z,17.76
2023-04-19T10:20:56.588Z,18.16
2023-04-19T10:24:00.574Z,18.51
2023-04-19T10:27:11.518Z,19.10
2023-04-19T10:30:21.666Z,18.79
2023-04-19T10:33:28.840Z,18.66
2023-04-19T10:36:33.740Z,18.36
2023-04-19T10:39:44.279Z,17.38
2023-04-19T10:43:17.700Z,18.14
2023-04-19T10:46:40.081Z,18.18
2023-04-19T10:49:46.938Z,17.81
2023-04-19T10:52:50.987Z,17.88
2023-04-19T10:55:53.603Z,19.04
2023-04-19T10:59:23.457Z,19.04
2023-04-19T11:02:30.731Z,19.31
2023-04-19T11:06:16.514Z,19.05
2023-04-19T11:09:24.650Z,19.26
2023-04-19T11:12:27.946Z,19.22
2023-04-19T11:15:30.613Z,18.99
2023-04-19T11:18:33.324Z,18.19
2023-04-19T11:21:41.024Z,17.70
2023-04-19T11:24:48.200Z,18.20
2023-04-19T11:27:52.943Z,19.03
2023-04-19T11:30:56.665Z,18.73
2023-04-19T11:33:59.945Z,18.68
2023-04-19T11:37:02.612Z,18.19
2023-04-19T11:40:09.126Z,18.65
2023-04-19T11:43:11.884Z,19.58
2023-04-19T11:46:15.107Z,19.19
2023-04-19T11:49:27.209Z,18.99
2023-04-19T11:52:29.860Z,18.24
2023-04-19T11:55:35.921Z,18.36
2023-04-19T11:58:40.168Z,18.07
2023-04-19T12:01:42.798Z,18.54
2023-04-19T12:04:45.832Z,18.50
2023-04-19T12:08:02.812Z,18.91
2023-04-19T12:11:07.625Z,19.29
2023-04-19T12:14:10.607Z,19.73
2023-04-19T12:17:15.764Z,19.65
2023-04-19T12:20:30.168Z,19.85
2023-04-19T12:23:32.831Z,19.12
2023-04-19T12:26:37.624Z,19.56
2023-04-19T12:29:40.396Z,18.72
2023-04-19T12:32:43.132Z,18.89
2023-04-19T12:35:45.892Z,17.96
2023-04-19T12:38:48.569Z,18.23
2023-04-19T12:41:52.584Z,18.94
2023-04-19T12:44:55.235Z,19.85
2023-04-19T12:47:57.954Z,19.85
2023-04-19T12:51:01.315Z,19.55
2023-04-19T12:54:04.106Z,18.17
2023-04-19T12:57:08.102Z,18.20
2023-04-19T13:00:12.489Z,19.76
2023-04-19T13:03:15.385Z,18.92
2023-04-19T13:06:18.322Z,18.48
2023-04-19T13:09:21.001Z,18.48
2023-04-19T13:12:25.196Z,18.27
2023-04-19T13:15:28.505Z,18.03
2023-04-19T13:18:31.337Z,18.33
2023-04-19T13:21:34.004Z,18.91
2023-04-19T13:24:36.659Z,18.98
2023-04-19T13:27:40.713Z,17.82
2023-04-19T13:30:43.434Z,17.68
2023-04-19T13:33:46.390Z,17.87
2023-04-19T13:36:49.135Z,16.94
2023-04-19T13:39:51.801Z,17.10
2023-04-19T13:42:56.727Z,16.52
2023-04-19T13:45:59.397Z,15.95
2023-04-19T13:49:01.999Z,15.31
2023-04-19T13:52:04.643Z,15.27
2023-04-19T13:55:07.736Z,15.55
2023-04-19T13:58:11.804Z,15.01
2023-04-19T14:01:14.538Z,15.18
2023-04-19T14:04:17.700Z,15.39
2023-04-19T14:07:20.916Z,15.66
2023-04-19T14:10:23.642Z,15.83
2023-04-19T14:13:28.043Z,15.72
2023-04-19T14:16:30.817Z,15.80
2023-04-19T14:19:33.514Z,15.80
2023-04-19T14:22:36.193Z,15.90
2023-04-19T14:25:38.837Z,15.88
2023-04-19T14:28:42.868Z,15.31
2023-04-19T14:31:45.626Z,15.25
2023-04-19T14:34:48.313Z,15.13
2023-04-19T14:37:51.019Z,14.81
2023-04-19T14:40:53.697Z,15.22
2023-04-19T14:43:57.706Z,14.92
2023-04-19T14:47:00.408Z,15.11
2023-04-19T14:50:03.787Z,15.11
2023-04-19T14:53:06.418Z,14.81
2023-04-19T14:56:09.582Z,14.95
2023-04-19T14:59:13.889Z,14.97
2023-04-19T15:02:16.894Z,14.48
2023-04-19T15:05:19.915Z,14.74
2023-04-19T15:08:30.112Z,14.31
2023-04-19T15:11:33.477Z,13.99
2023-04-19T15:14:37.585Z,14.01
2023-04-19T15:17:40.653Z,13.71
2023-04-19T15:20:43.566Z,13.57
2023-04-19T15:23:46.242Z,13.45
2023-04-19T15:26:48.975Z,13.52
2023-04-19T15:29:53.022Z,13.79
2023-04-19T15:32:55.717Z,13.47
2023-04-19T15:35:59.357Z,13.55
2023-04-19T15:39:02.161Z,13.27
2023-04-19T15:42:05.143Z,13.07
2023-04-19T15:45:10.284Z,12.91
2023-04-19T15:48:13.040Z,12.97
2023-04-19T15:51:16.119Z,13.13
2023-04-19T15:54:21.485Z,13.34
2023-04-19T15:57:24.138Z,13.06
2023-04-19T16:00:28.481Z,13.08
2023-04-19T16:03:31.407Z,13.01
2023-04-19T16:06:34.213Z,13.11
2023-04-19T16:09:36.893Z,13.28
2023-04-19T16:12:39.762Z,13.36
2023-04-19T16:15:44.704Z,13.36
2023-04-19T16:18:47.945Z,13.40
2023-04-19T16:21:50.639Z,13.43
2023-04-19T16:24:53.322Z,13.40
2023-04-19T16:27:56.048Z,13.12
2023-04-19T16:31:00.113Z,12.93
2023-04-19T16:34:02.790Z,13.01
2023-04-19T16:37:05.514Z,12.71
2023-04-19T16:40:10.392Z,12.68
2023-04-19T16:43:13.025Z,12.37
2023-04-19T16:46:17.157Z,12.38
2023-04-19T16:49:20.659Z,12.49
2023-04-19T16:52:23.340Z,12.36
2023-04-19T16:55:26.100Z,12.37
2023-04-19T16:58:28.777Z,12.56
2023-04-19T17:01:32.806Z,12.56
2023-04-19T17:04:35.913Z,12.25
2023-04-19T17:07:38.704Z,12.33
2023-04-19T17:10:41.389Z,12.25
2023-04-19T17:13:44.011Z,11.85
2023-04-19T17:16:48.028Z,11.78
2023-04-19T17:19:50.693Z,11.70
2023-04-19T17:22:53.339Z,11.69
2023-04-19T17:25:55.991Z,11.60
2023-04-19T17:29:01.218Z,11.46
2023-04-19T17:32:08.339Z,11.54
2023-04-19T17:35:11.048Z,11.79
2023-04-19T17:38:13.770Z,11.89
2023-04-19T17:41:17.034Z,11.80
2023-04-19T17:44:19.844Z,11.83
2023-04-19T17:47:23.902Z,11.61
2023-04-19T17:50:27.192Z,11.36
2023-04-19T17:53:29.991Z,11.33
2023-04-19T17:56:32.658Z,11.34
2023-04-19T17:59:44.204Z,11.17
2023-04-19T18:02:48.491Z,11.35
2023-04-19T18:05:51.247Z,11.33
2023-04-19T18:08:53.953Z,11.14
2023-04-19T18:11:57.797Z,11.03
2023-04-19T18:15:00.469Z,10.84
2023-04-19T18:18:04.739Z,10.75
2023-04-19T18:21:08.232Z,11.13
2023-04-19T18:24:11.113Z,11.21
2023-04-19T18:27:13.933Z,11.17
2023-04-19T18:30:16.670Z,11.21
2023-04-19T18:33:20.697Z,11.01
2023-04-19T18:36:23.901Z,11.09
2023-04-19T18:39:26.570Z,11.16
2023-04-19T18:42:29.218Z,11.38
2023-04-19T18:45:33.334Z,11.09
2023-04-19T18:48:37.518Z,10.97
2023-04-19T18:51:40.157Z,10.80
2023-04-19T18:54:42.800Z,10.97
2023-04-19T18:57:45.420Z,11.08
2023-04-19T19:00:49.314Z,11.10
2023-04-19T19:04:23.504Z,10.88
2023-04-19T19:07:34.331Z,10.77
2023-04-19T19:11:12.877Z,10.89
2023-04-19T19:14:01.653Z,10.96
2023-04-19T19:17:06.181Z,11.06
2023-04-19T19:20:11.271Z,10.91
2023-04-19T19:23:14.598Z,10.48
2023-04-19T19:26:17.340Z,10.52
2023-04-19T19:29:22.558Z,10.65
2023-04-19T19:32:25.711Z,10.44
2023-04-19T19:35:29.961Z,10.57
2023-04-19T19:38:32.808Z,10.43
2023-04-19T19:44:41.617Z,10.23
2023-04-19T19:47:46.066Z,10.41
2023-04-19T19:53:58.192Z,10.32
2023-04-19T19:57:57.294Z,10.11
2023-04-19T20:00:42.820Z,10.40
2023-04-19T20:03:47.444Z,10.07
2023-04-19T20:09:57.678Z,10.25
2023-04-19T20:13:01.403Z,10.09
2023-04-19T20:16:04.334Z,10.10
2023-04-19T20:19:09.847Z,10.09
2023-04-19T20:22:14.163Z,10.29
2023-04-19T20:25:17.017Z,10.30
2023-04-19T20:28:19.860Z,10.10
2023-04-19T20:31:24.001Z,10.19
2023-04-19T20:34:26.863Z,10.03
2023-04-19T20:37:30.913Z,9.93
2023-04-19T20:40:33.615Z,9.61
2023-04-19T20:43:36.386Z,9.43
2023-04-19T20:46:39.074Z,9.37
2023-04-19T20:49:41.852Z,9.28
2023-04-19T20:52:45.914Z,9.31
2023-04-19T20:55:48.614Z,9.33
2023-04-19T20:58:51.338Z,9.55
2023-04-19T21:01:53.975Z,9.58
2023-04-19T21:04:56.592Z,9.69
2023-04-19T21:08:00.612Z,9.57
2023-04-19T21:11:03.286Z,9.65
2023-04-19T21:14:06.122Z,9.77
2023-04-19T21:17:08.821Z,9.77
2023-04-19T21:20:14.100Z,10.02
2023-04-19T21:23:18.340Z,10.04
2023-04-19T21:26:21.087Z,10.12
2023-04-19T21:29:25.067Z,9.85
2023-04-19T21:32:28.674Z,9.92
2023-04-19T21:35:31.367Z,9.85
2023-04-19T21:38:35.711Z,9.89
2023-04-19T21:41:38.623Z,10.01
2023-04-19T21:44:41.274Z,9.95
2023-04-19T21:47:43.940Z,10.00
2023-04-19T21:50:46.644Z,9.96
2023-04-19T21:53:50.678Z,9.89
2023-04-19T21:56:53.412Z,10.02
2023-04-19T21:59:56.282Z,10.12
2023-04-19T22:02:59.162Z,10.10
2023-04-19T22:06:02.164Z,10.10
2023-04-19T22:09:06.385Z,10.30
2023-04-19T22:12:11.529Z,10.18
2023-04-19T22:15:14.643Z,9.93
2023-04-19T22:18:17.337Z,9.46
2023-04-19T22:21:20.002Z,9.34
2023-04-19T22:24:24.136Z,9.22
2023-04-19T22:27:26.800Z,9.07
2023-04-19T22:30:29.522Z,9.22
2023-04-19T22:33:32.154Z,9.20
2023-04-19T22:36:34.791Z,9.17
2023-04-19T22:39:38.924Z,9.37
2023-04-19T22:42:41.567Z,9.38
2023-04-19T22:45:47.604Z,9.35
2023-04-19T22:48:50.535Z,9.23
2023-04-19T22:51:54.441Z,9.46
2023-04-19T22:54:58.491Z,9.35
2023-04-19T22:58:01.129Z,9.31
2023-04-19T23:01:04.088Z,9.33
2023-04-19T23:04:06.835Z,8.93
2023-04-19T23:07:09.541Z,9.03
2023-04-19T23:10:14.207Z,8.76
2023-04-19T23:13:17.026Z,8.85
2023-04-19T23:16:19.861Z,8.71
2023-04-19T23:19:23.283Z,8.47
2023-04-19T23:22:25.951Z,8.20
2023-04-19T23:25:29.925Z,8.45
2023-04-19T23:28:32.565Z,8.55
2023-04-19T23:31:35.260Z,8.72
2023-04-19T23:34:37.900Z,8.47
2023-04-19T23:37:40.970Z,8.41
2023-04-19T23:40:45.023Z,8.26
2023-04-19T23:43:47.700Z,8.36
2023-04-19T23:46:50.355Z,8.32
2023-04-19T23:49:53.020Z,8.42
2023-04-19T23:52:55.650Z,8.22
2023-04-19T23:55:59.630Z,8.19
2023-04-19T23:59:02.319Z,8.36
